sensor_id;sensor_type;location;lat;lon;timestamp;pressure;altitude;pressure_sealevel;temperature;humidity
22389;BME280;11362;48.102;11.620;2022-09-25T00:01:41;94873.25;;;21.76;42.16
22389;BME280;11362;48.102;11.620;2022-09-25T00:04:06;94883.09;;;21.77;42.21
22389;BME280;11362;48.102;11.620;2022-09-25T00:06:31;94877.56;;;21.77;42.23
22389;BME280;11362;48.102;11.620;2022-09-25T00:08:57;94869.28;;;21.77;42.40
22389;BME280;11362;48.102;11.620;2022-09-25T00:11:25;94865.38;;;21.74;42.20
22389;BME280;11362;48.102;11.620;2022-09-25T00:13:52;94876.78;;;21.76;42.35
22389;BME280;11362;48.102;11.620;2022-09-25T00:16:20;94869.28;;;21.77;42.29
22389;BME280;11362;48.102;11.620;2022-09-25T00:18:46;94867.72;;;21.76;42.03
22389;BME280;11362;48.102;11.620;2022-09-25T00:21:13;94862.97;;;21.76;42.16
22389;BME280;11362;48.102;11.620;2022-09-25T00:23:40;94857.44;;;21.76;42.25
22389;BME280;11362;48.102;11.620;2022-09-25T00:26:07;94859.44;;;21.76;42.27
22389;BME280;11362;48.102;11.620;2022-09-25T00:28:34;94855.06;;;21.75;42.39
22389;BME280;11362;48.102;11.620;2022-09-25T00:31:00;94844.03;;;21.75;42.35
22389;BME280;11362;48.102;11.620;2022-09-25T00:33:25;94852.31;;;21.75;42.32
22389;BME280;11362;48.102;11.620;2022-09-25T00:35:51;94847.22;;;21.73;42.36
22389;BME280;11362;48.102;11.620;2022-09-25T00:38:16;94842.44;;;21.74;42.46
22389;BME280;11362;48.102;11.620;2022-09-25T00:40:41;94842.44;;;21.74;42.33
22389;BME280;11362;48.102;11.620;2022-09-25T00:43:36;94848.78;;;21.74;42.22
22389;BME280;11362;48.102;11.620;2022-09-25T00:46:05;94847.97;;;21.74;42.32
22389;BME280;11362;48.102;11.620;2022-09-25T00:48:31;94841.69;;;21.73;42.27
22389;BME280;11362;48.102;11.620;2022-09-25T00:50:57;94848.78;;;21.74;42.15
22389;BME280;11362;48.102;11.620;2022-09-25T00:53:30;94847.97;;;21.74;42.16
22389;BME280;11362;48.102;11.620;2022-09-25T00:55:58;94842.44;;;21.74;42.25
22389;BME280;11362;48.102;11.620;2022-09-25T00:58:27;94845.22;;;21.74;42.13
22389;BME280;11362;48.102;11.620;2022-09-25T01:00:53;94841.25;;;21.75;42.18
22389;BME280;11362;48.102;11.620;2022-09-25T01:03:19;94837.72;;;21.74;42.18
22389;BME280;11362;48.102;11.620;2022-09-25T01:05:46;94846.00;;;21.74;42.14
22389;BME280;11362;48.102;11.620;2022-09-25T01:08:15;94844.44;;;21.73;42.13
22389;BME280;11362;48.102;11.620;2022-09-25T01:10:42;94845.22;;;21.74;42.20
22389;BME280;11362;48.102;11.620;2022-09-25T01:13:08;94842.44;;;21.74;42.19
22389;BME280;11362;48.102;11.620;2022-09-25T01:21:17;94836.16;;;21.73;42.16
22389;BME280;11362;48.102;11.620;2022-09-25T01:26:42;94825.88;;;21.74;42.19
22389;BME280;11362;48.102;11.620;2022-09-25T01:29:16;94835.38;;;21.73;42.26
22389;BME280;11362;48.102;11.620;2022-09-25T01:31:59;94824.31;;;21.73;42.29
22389;BME280;11362;48.102;11.620;2022-09-25T01:34:32;94825.09;;;21.73;42.16
22389;BME280;11362;48.102;11.620;2022-09-25T01:37:07;94823.53;;;21.72;42.10
22389;BME280;11362;48.102;11.620;2022-09-25T01:39:42;94820.78;;;21.72;41.97
22389;BME280;11362;48.102;11.620;2022-09-25T01:42:25;94818.00;;;21.72;42.06
22389;BME280;11362;48.102;11.620;2022-09-25T01:44:56;94817.22;;;21.72;42.03
22389;BME280;11362;48.102;11.620;2022-09-25T01:47:25;94820.78;;;21.72;41.97
22389;BME280;11362;48.102;11.620;2022-09-25T01:49:58;94818.00;;;21.72;42.11
22389;BME280;11362;48.102;11.620;2022-09-25T01:52:29;94818.78;;;21.73;42.13
22389;BME280;11362;48.102;11.620;2022-09-25T01:55:01;94818.78;;;21.73;42.13
22389;BME280;11362;48.102;11.620;2022-09-25T01:57:43;94818.00;;;21.72;42.24
22389;BME280;11362;48.102;11.620;2022-09-25T02:00:13;94816.41;;;21.71;42.07
22389;BME280;11362;48.102;11.620;2022-09-25T02:02:46;94817.22;;;21.72;41.96
22389;BME280;11362;48.102;11.620;2022-09-25T02:05:20;94817.22;;;21.72;42.21
22389;BME280;11362;48.102;11.620;2022-09-25T02:07:50;94813.25;;;21.73;42.15
22389;BME280;11362;48.102;11.620;2022-09-25T02:10:22;94818.78;;;21.73;42.19
22389;BME280;11362;48.102;11.620;2022-09-25T02:12:54;94819.97;;;21.72;42.00
22389;BME280;11362;48.102;11.620;2022-09-25T02:15:30;94822.75;;;21.72;42.27
22389;BME280;11362;48.102;11.620;2022-09-25T02:18:06;94819.19;;;21.71;42.10
22389;BME280;11362;48.102;11.620;2022-09-25T02:20:34;94821.59;;;21.69;42.22
22389;BME280;11362;48.102;11.620;2022-09-25T02:26:10;94822.75;;;21.72;42.17
22389;BME280;11362;48.102;11.620;2022-09-25T02:28:39;94826.72;;;21.71;42.09
22389;BME280;11362;48.102;11.620;2022-09-25T02:31:07;94835.00;;;21.71;42.05
22389;BME280;11362;48.102;11.620;2022-09-25T02:33:34;94832.25;;;21.71;41.83
22389;BME280;11362;48.102;11.620;2022-09-25T02:36:01;94831.44;;;21.70;42.21
22389;BME280;11362;48.102;11.620;2022-09-25T02:38:28;94836.22;;;21.70;41.97
22389;BME280;11362;48.102;11.620;2022-09-25T02:52:09;94825.16;;;21.70;42.00
22389;BME280;11362;48.102;11.620;2022-09-25T02:54:46;94820.38;;;21.70;42.02
22389;BME280;11362;48.102;11.620;2022-09-25T02:58:06;94823.16;;;21.70;41.88
22389;BME280;11362;48.102;11.620;2022-09-25T03:00:06;94812.09;;;21.70;42.11
22389;BME280;11362;48.102;11.620;2022-09-25T03:02:33;94805.00;;;21.69;42.10
22389;BME280;11362;48.102;11.620;2022-09-25T03:04:59;94807.38;;;21.71;41.99
22389;BME280;11362;48.102;11.620;2022-09-25T03:07:26;94803.81;;;21.70;42.03
22389;BME280;11362;48.102;11.620;2022-09-25T03:09:52;94798.28;;;21.70;41.92
22389;BME280;11362;48.102;11.620;2022-09-25T03:12:19;94797.50;;;21.70;41.75
22389;BME280;11362;48.102;11.620;2022-09-25T03:14:44;94799.06;;;21.71;42.05
22389;BME280;11362;48.102;11.620;2022-09-25T03:17:10;94795.50;;;21.70;42.08
22389;BME280;11362;48.102;11.620;2022-09-25T03:19:37;94791.97;;;21.70;41.99
22389;BME280;11362;48.102;11.620;2022-09-25T03:22:03;94803.03;;;21.70;41.97
22389;BME280;11362;48.102;11.620;2022-09-25T03:24:28;94801.47;;;21.69;42.03
22389;BME280;11362;48.102;11.620;2022-09-25T03:26:54;94797.50;;;21.70;42.09
22389;BME280;11362;48.102;11.620;2022-09-25T03:29:20;94791.97;;;21.70;42.14
22389;BME280;11362;48.102;11.620;2022-09-25T03:31:46;94785.66;;;21.69;41.65
22389;BME280;11362;48.102;11.620;2022-09-25T03:34:14;94785.66;;;21.69;42.03
22389;BME280;11362;48.102;11.620;2022-09-25T03:36:40;94780.94;;;21.70;41.95
22389;BME280;11362;48.102;11.620;2022-09-25T03:39:06;94786.44;;;21.70;41.87
22389;BME280;11362;48.102;11.620;2022-09-25T03:41:33;94784.91;;;21.69;41.95
22389;BME280;11362;48.102;11.620;2022-09-25T03:43:58;94790.41;;;21.69;41.90
22389;BME280;11362;48.102;11.620;2022-09-25T03:46:26;94795.94;;;21.69;41.81
22389;BME280;11362;48.102;11.620;2022-09-25T03:48:52;94797.50;;;21.70;41.73
22389;BME280;11362;48.102;11.620;2022-09-25T03:51:18;94790.41;;;21.69;41.65
22389;BME280;11362;48.102;11.620;2022-09-25T03:53:44;94791.19;;;21.69;41.94
22389;BME280;11362;48.102;11.620;2022-09-25T03:56:12;94793.19;;;21.69;41.93
22389;BME280;11362;48.102;11.620;2022-09-25T03:58:38;94793.19;;;21.69;41.86
22389;BME280;11362;48.102;11.620;2022-09-25T04:01:04;94789.63;;;21.68;42.04
22389;BME280;11362;48.102;11.620;2022-09-25T04:03:31;94788.81;;;21.68;41.90
22389;BME280;11362;48.102;11.620;2022-09-25T04:05:59;94783.31;;;21.68;41.97
22389;BME280;11362;48.102;11.620;2022-09-25T04:08:26;94776.59;;;21.69;42.13
22389;BME280;11362;48.102;11.620;2022-09-25T04:10:52;94772.25;;;21.68;41.81
22389;BME280;11362;48.102;11.620;2022-09-25T04:13:18;94768.72;;;21.67;42.15
22389;BME280;11362;48.102;11.620;2022-09-25T04:15:43;94765.53;;;21.69;41.86
22389;BME280;11362;48.102;11.620;2022-09-25T04:18:09;94757.66;;;21.67;42.01
22389;BME280;11362;48.102;11.620;2022-09-25T04:20:34;94766.72;;;21.68;41.94
22389;BME280;11362;48.102;11.620;2022-09-25T04:23:00;94773.84;;;21.69;41.84
22389;BME280;11362;48.102;11.620;2022-09-25T04:25:25;94763.94;;;21.68;41.94
22389;BME280;11362;48.102;11.620;2022-09-25T04:27:54;94769.47;;;21.68;41.86
22389;BME280;11362;48.102;11.620;2022-09-25T04:30:28;94775.00;;;21.68;41.72
22389;BME280;11362;48.102;11.620;2022-09-25T04:32:53;94775.00;;;21.68;41.63
22389;BME280;11362;48.102;11.620;2022-09-25T04:35:19;94781.75;;;21.67;41.93
22389;BME280;11362;48.102;11.620;2022-09-25T04:37:44;94773.03;;;21.68;41.79
22389;BME280;11362;48.102;11.620;2022-09-25T04:40:09;94776.22;;;21.67;41.82
22389;BME280;11362;48.102;11.620;2022-09-25T04:42:35;94788.81;;;21.68;41.83
22389;BME280;11362;48.102;11.620;2022-09-25T04:45:00;94782.53;;;21.67;41.95
22389;BME280;11362;48.102;11.620;2022-09-25T04:47:27;94773.44;;;21.67;41.85
22389;BME280;11362;48.102;11.620;2022-09-25T04:49:52;94775.44;;;21.66;41.89
22389;BME280;11362;48.102;11.620;2022-09-25T04:52:18;94776.22;;;21.67;41.76
22389;BME280;11362;48.102;11.620;2022-09-25T04:54:43;94776.22;;;21.67;41.81
22389;BME280;11362;48.102;11.620;2022-09-25T04:57:13;94775.44;;;21.66;41.71
22389;BME280;11362;48.102;11.620;2022-09-25T04:59:39;94787.28;;;21.67;41.86
22389;BME280;11362;48.102;11.620;2022-09-25T05:02:05;94792.78;;;21.67;41.84
22389;BME280;11362;48.102;11.620;2022-09-25T05:04:30;94778.97;;;21.67;41.77
22389;BME280;11362;48.102;11.620;2022-09-25T05:06:55;94784.50;;;21.67;41.81
22389;BME280;11362;48.102;11.620;2022-09-25T05:09:20;94792.78;;;21.67;41.53
22389;BME280;11362;48.102;11.620;2022-09-25T05:11:46;94788.81;;;21.68;42.04
22389;BME280;11362;48.102;11.620;2022-09-25T05:14:11;94794.78;;;21.66;41.71
22389;BME280;11362;48.102;11.620;2022-09-25T05:16:36;94796.75;;;21.66;41.79
22389;BME280;11362;48.102;11.620;2022-09-25T05:19:02;94798.31;;;21.67;41.76
22389;BME280;11362;48.102;11.620;2022-09-25T05:21:27;94792.78;;;21.67;41.71
22389;BME280;11362;48.102;11.620;2022-09-25T05:23:53;94794.78;;;21.66;41.81
22389;BME280;11362;48.102;11.620;2022-09-25T05:26:19;94790.03;;;21.67;41.56
22389;BME280;11362;48.102;11.620;2022-09-25T05:28:47;94790.03;;;21.67;41.65
22389;BME280;11362;48.102;11.620;2022-09-25T05:31:13;94787.28;;;21.67;41.75
22389;BME280;11362;48.102;11.620;2022-09-25T05:33:38;94792.78;;;21.67;42.01
22389;BME280;11362;48.102;11.620;2022-09-25T05:36:04;94786.50;;;21.66;41.84
22389;BME280;11362;48.102;11.620;2022-09-25T05:38:31;94796.34;;;21.67;41.78
22389;BME280;11362;48.102;11.620;2022-09-25T05:41:01;94784.50;;;21.67;41.62
22389;BME280;11362;48.102;11.620;2022-09-25T05:43:26;94788.81;;;21.68;41.72
22389;BME280;11362;48.102;11.620;2022-09-25T05:45:53;94787.28;;;21.67;41.89
22389;BME280;11362;48.102;11.620;2022-09-25T05:48:18;94798.31;;;21.67;41.95
22389;BME280;11362;48.102;11.620;2022-09-25T05:50:44;94792.78;;;21.67;41.90
22389;BME280;11362;48.102;11.620;2022-09-25T05:53:09;94788.81;;;21.68;41.81
22389;BME280;11362;48.102;11.620;2022-09-25T05:55:35;94792.78;;;21.67;41.73
22389;BME280;11362;48.102;11.620;2022-09-25T05:58:01;94788.06;;;21.67;41.37
22389;BME280;11362;48.102;11.620;2022-09-25T06:00:27;94786.50;;;21.66;41.79
22389;BME280;11362;48.102;11.620;2022-09-25T06:02:52;94785.72;;;21.66;41.79
22389;BME280;11362;48.102;11.620;2022-09-25T06:05:18;94785.72;;;21.66;41.74
22389;BME280;11362;48.102;11.620;2022-09-25T06:07:43;94791.22;;;21.66;41.82
22389;BME280;11362;48.102;11.620;2022-09-25T06:10:09;94782.16;;;21.65;41.92
22389;BME280;11362;48.102;11.620;2022-09-25T06:12:34;94790.03;;;21.67;41.77
22389;BME280;11362;48.102;11.620;2022-09-25T06:14:59;94789.28;;;21.66;41.92
22389;BME280;11362;48.102;11.620;2022-09-25T06:17:25;94794.78;;;21.66;41.74
22389;BME280;11362;48.102;11.620;2022-09-25T06:19:50;94795.56;;;21.67;41.77
22389;BME280;11362;48.102;11.620;2022-09-25T06:22:15;94797.56;;;21.66;41.81
22389;BME280;11362;48.102;11.620;2022-09-25T06:24:41;94791.22;;;21.66;41.69
22389;BME280;11362;48.102;11.620;2022-09-25T06:27:06;94799.13;;;21.67;41.79
22389;BME280;11362;48.102;11.620;2022-09-25T06:29:32;94791.22;;;21.66;41.87
22389;BME280;11362;48.102;11.620;2022-09-25T06:31:57;94796.75;;;21.66;41.54
22389;BME280;11362;48.102;11.620;2022-09-25T06:34:22;94794.78;;;21.66;41.80
22389;BME280;11362;48.102;11.620;2022-09-25T06:36:48;94795.16;;;21.65;42.00
22389;BME280;11362;48.102;11.620;2022-09-25T06:39:13;94796.75;;;21.66;41.72
22389;BME280;11362;48.102;11.620;2022-09-25T06:41:38;94792.03;;;21.66;41.78
22389;BME280;11362;48.102;11.620;2022-09-25T06:44:04;94791.22;;;21.66;41.88
22389;BME280;11362;48.102;11.620;2022-09-25T06:46:29;94783.75;;;21.66;41.73
22389;BME280;11362;48.102;11.620;2022-09-25T06:48:55;94786.50;;;21.66;41.77
22389;BME280;11362;48.102;11.620;2022-09-25T06:51:21;94782.94;;;21.66;41.75
22389;BME280;11362;48.102;11.620;2022-09-25T06:53:47;94783.75;;;21.66;41.73
22389;BME280;11362;48.102;11.620;2022-09-25T06:56:12;94790.03;;;21.67;41.65
22389;BME280;11362;48.102;11.620;2022-09-25T06:58:37;94787.28;;;21.67;41.66
22389;BME280;11362;48.102;11.620;2022-09-25T07:01:03;94786.06;;;21.68;41.70
22389;BME280;11362;48.102;11.620;2022-09-25T07:03:28;94781.75;;;21.67;41.67
22389;BME280;11362;48.102;11.620;2022-09-25T07:05:54;94784.50;;;21.67;41.88
22389;BME280;11362;48.102;11.620;2022-09-25T07:08:19;94785.31;;;21.67;41.94
22389;BME280;11362;48.102;11.620;2022-09-25T07:13:13;94788.06;;;21.67;41.80
22389;BME280;11362;48.102;11.620;2022-09-25T07:15:38;94790.03;;;21.67;41.95
22389;BME280;11362;48.102;11.620;2022-09-25T07:18:03;94788.81;;;21.68;41.65
22389;BME280;11362;48.102;11.620;2022-09-25T07:20:29;94791.59;;;21.68;41.83
22389;BME280;11362;48.102;11.620;2022-09-25T07:22:58;94787.28;;;21.67;41.90
22389;BME280;11362;48.102;11.620;2022-09-25T07:25:23;94780.53;;;21.68;41.89
22389;BME280;11362;48.102;11.620;2022-09-25T07:27:48;94785.31;;;21.67;41.84
22389;BME280;11362;48.102;11.620;2022-09-25T07:30:14;94782.53;;;21.67;41.78
22389;BME280;11362;48.102;11.620;2022-09-25T07:32:42;94788.06;;;21.67;41.70
22389;BME280;11362;48.102;11.620;2022-09-25T07:35:08;94775.00;;;21.68;41.54
22389;BME280;11362;48.102;11.620;2022-09-25T07:37:33;94774.25;;;21.67;41.69
22389;BME280;11362;48.102;11.620;2022-09-25T07:39:58;94779.38;;;21.69;41.92
22389;BME280;11362;48.102;11.620;2022-09-25T07:42:24;94779.38;;;21.69;41.76
22389;BME280;11362;48.102;11.620;2022-09-25T07:44:49;94779.38;;;21.69;41.72
22389;BME280;11362;48.102;11.620;2022-09-25T07:47:14;94784.91;;;21.69;41.80
22389;BME280;11362;48.102;11.620;2022-09-25T07:49:40;94787.66;;;21.69;41.87
22389;BME280;11362;48.102;11.620;2022-09-25T07:52:05;94785.66;;;21.69;41.83
22389;BME280;11362;48.102;11.620;2022-09-25T07:54:30;94794.75;;;21.70;41.92
22389;BME280;11362;48.102;11.620;2022-09-25T07:56:56;94800.28;;;21.70;41.92
22389;BME280;11362;48.102;11.620;2022-09-25T07:59:21;94799.06;;;21.71;41.68
22389;BME280;11362;48.102;11.620;2022-09-25T08:01:47;94789.22;;;21.70;41.79
22389;BME280;11362;48.102;11.620;2022-09-25T08:04:12;94799.84;;;21.71;41.84
22389;BME280;11362;48.102;11.620;2022-09-25T08:06:37;94799.06;;;21.71;41.77
22389;BME280;11362;48.102;11.620;2022-09-25T08:09:03;94798.28;;;21.70;41.82
22389;BME280;11362;48.102;11.620;2022-09-25T08:11:28;94798.28;;;21.70;41.86
22389;BME280;11362;48.102;11.620;2022-09-25T08:13:53;94788.00;;;21.71;41.94
22389;BME280;11362;48.102;11.620;2022-09-25T08:16:19;94786.81;;;21.72;41.75
22389;BME280;11362;48.102;11.620;2022-09-25T08:18:45;94788.00;;;21.71;41.84
22389;BME280;11362;48.102;11.620;2022-09-25T08:21:12;94786.00;;;21.71;41.66
22389;BME280;11362;48.102;11.620;2022-09-25T08:23:40;94784.84;;;21.72;41.74
22389;BME280;11362;48.102;11.620;2022-09-25T08:26:06;94787.59;;;21.72;41.69
22389;BME280;11362;48.102;11.620;2022-09-25T08:28:31;94787.59;;;21.72;41.93
22389;BME280;11362;48.102;11.620;2022-09-25T08:30:57;94784.03;;;21.72;41.90
22389;BME280;11362;48.102;11.620;2022-09-25T08:33:22;94789.16;;;21.73;41.83
22389;BME280;11362;48.102;11.620;2022-09-25T08:35:59;94791.13;;;21.73;41.99
22389;BME280;11362;48.102;11.620;2022-09-25T08:38:25;94796.66;;;21.73;42.02
22389;BME280;11362;48.102;11.620;2022-09-25T08:41:00;94796.66;;;21.73;42.04
22389;BME280;11362;48.102;11.620;2022-09-25T08:43:27;94797.47;;;21.73;42.13
22389;BME280;11362;48.102;11.620;2022-09-25T08:45:53;94792.69;;;21.74;41.95
22389;BME280;11362;48.102;11.620;2022-09-25T08:48:29;94797.47;;;21.73;41.88
22389;BME280;11362;48.102;11.620;2022-09-25T08:50:56;94795.09;;;21.72;42.15
22389;BME280;11362;48.102;11.620;2022-09-25T08:53:25;94794.69;;;21.73;41.98
22389;BME280;11362;48.102;11.620;2022-09-25T08:55:50;94795.09;;;21.72;42.07
22389;BME280;11362;48.102;11.620;2022-09-25T08:58:28;94793.53;;;21.71;41.97
22389;BME280;11362;48.102;11.620;2022-09-25T09:00:58;94791.53;;;21.71;41.96
22389;BME280;11362;48.102;11.620;2022-09-25T09:03:25;94791.13;;;21.73;41.84
22389;BME280;11362;48.102;11.620;2022-09-25T09:05:58;94790.38;;;21.72;42.00
22389;BME280;11362;48.102;11.620;2022-09-25T09:08:27;94795.91;;;21.72;42.01
22389;BME280;11362;48.102;11.620;2022-09-25T09:10:58;94785.59;;;21.73;42.19
22389;BME280;11362;48.102;11.620;2022-09-25T09:13:29;94788.38;;;21.73;42.02
22389;BME280;11362;48.102;11.620;2022-09-25T09:16:01;94780.09;;;21.73;42.21
22389;BME280;11362;48.102;11.620;2022-09-25T09:18:31;94780.09;;;21.73;42.00
22389;BME280;11362;48.102;11.620;2022-09-25T09:21:02;94784.84;;;21.72;42.02
22389;BME280;11362;48.102;11.620;2022-09-25T09:23:39;94780.50;;;21.71;42.13
22389;BME280;11362;48.102;11.620;2022-09-25T09:26:15;94787.22;;;21.70;42.12
22389;BME280;11362;48.102;11.620;2022-09-25T09:29:09;94786.81;;;21.72;42.00
22389;BME280;11362;48.102;11.620;2022-09-25T09:34:54;94787.59;;;21.72;42.21
22389;BME280;11362;48.102;11.620;2022-09-25T09:37:47;94783.25;;;21.71;42.23
22389;BME280;11362;48.102;11.620;2022-09-25T09:40:48;94785.25;;;21.71;42.27
22389;BME280;11362;48.102;11.620;2022-09-25T09:43:48;94777.31;;;21.73;42.10
22389;BME280;11362;48.102;11.620;2022-09-25T09:54:29;94772.16;;;21.75;42.25
22389;BME280;11362;48.102;11.620;2022-09-25T09:56:56;94770.59;;;21.74;42.22
22389;BME280;11362;48.102;11.620;2022-09-25T09:59:29;94774.91;;;21.75;42.09
22389;BME280;11362;48.102;11.620;2022-09-25T10:02:00;94766.63;;;21.75;42.29
22389;BME280;11362;48.102;11.620;2022-09-25T10:04:33;94771.31;;;21.78;42.14
22389;BME280;11362;48.102;11.620;2022-09-25T10:07:05;94765.81;;;21.78;42.19
22389;BME280;11362;48.102;11.620;2022-09-25T10:09:32;94764.25;;;21.77;42.18
22389;BME280;11362;48.102;11.620;2022-09-25T10:12:04;94766.56;;;21.78;42.28
22389;BME280;11362;48.102;11.620;2022-09-25T10:14:37;94759.47;;;21.77;42.00
22389;BME280;11362;48.102;11.620;2022-09-25T10:17:04;94754.75;;;21.78;42.29
22389;BME280;11362;48.102;11.620;2022-09-25T10:19:40;94757.50;;;21.78;42.25
22389;BME280;11362;48.102;11.620;2022-09-25T10:22:17;94765.81;;;21.78;42.20
22389;BME280;11362;48.102;11.620;2022-09-25T10:24:48;94761.03;;;21.78;42.24
22389;BME280;11362;48.102;11.620;2022-09-25T10:27:31;94768.56;;;21.78;42.25
22389;BME280;11362;48.102;11.620;2022-09-25T10:32:52;94772.09;;;21.78;42.29
22389;BME280;11362;48.102;11.620;2022-09-25T10:35:21;94758.72;;;21.77;42.20
22389;BME280;11362;48.102;11.620;2022-09-25T10:37:50;94768.56;;;21.78;42.28
22389;BME280;11362;48.102;11.620;2022-09-25T10:40:58;94753.19;;;21.77;42.36
22389;BME280;11362;48.102;11.620;2022-09-25T10:43:17;94764.25;;;21.77;42.28
22389;BME280;11362;48.102;11.620;2022-09-25T10:45:43;94757.50;;;21.78;42.35
22389;BME280;11362;48.102;11.620;2022-09-25T10:48:32;94771.31;;;21.78;42.31
22389;BME280;11362;48.102;11.620;2022-09-25T10:51:08;94760.28;;;21.78;42.36
22389;BME280;11362;48.102;11.620;2022-09-25T10:53:34;94766.56;;;21.78;42.34
22389;BME280;11362;48.102;11.620;2022-09-25T10:56:03;94761.03;;;21.78;42.29
22389;BME280;11362;48.102;11.620;2022-09-25T10:58:35;94753.53;;;21.79;42.24
22389;BME280;11362;48.102;11.620;2022-09-25T11:01:03;94757.09;;;21.79;42.30
22389;BME280;11362;48.102;11.620;2022-09-25T11:03:32;94752.34;;;21.80;42.12
22389;BME280;11362;48.102;11.620;2022-09-25T11:06:04;94756.66;;;21.81;42.28
22389;BME280;11362;48.102;11.620;2022-09-25T11:08:33;94751.13;;;21.81;42.35
22389;BME280;11362;48.102;11.620;2022-09-25T11:11:00;94746.81;;;21.80;42.57
22389;BME280;11362;48.102;11.620;2022-09-25T11:13:46;94748.38;;;21.81;42.43
22389;BME280;11362;48.102;11.620;2022-09-25T11:16:12;94745.59;;;21.81;42.45
22389;BME280;11362;48.102;11.620;2022-09-25T11:30:07;94734.13;;;21.82;42.46
22389;BME280;11362;48.102;11.620;2022-09-25T11:33:03;94736.91;;;21.82;42.45
22389;BME280;11362;48.102;11.620;2022-09-25T11:35:47;94723.84;;;21.83;42.53
22389;BME280;11362;48.102;11.620;2022-09-25T11:41:02;94715.94;;;21.85;42.38
22389;BME280;11362;48.102;11.620;2022-09-25T11:43:45;94714.72;;;21.86;42.35
22389;BME280;11362;48.102;11.620;2022-09-25T11:46:36;94710.41;;;21.85;42.43
22389;BME280;11362;48.102;11.620;2022-09-25T11:49:25;94707.63;;;21.85;42.49
22389;BME280;11362;48.102;11.620;2022-09-25T12:00:17;94703.66;;;21.86;42.32
22389;BME280;11362;48.102;11.620;2022-09-25T12:06:18;94700.09;;;21.85;42.43
22389;BME280;11362;48.102;11.620;2022-09-25T12:09:15;94693.81;;;21.85;42.33
22389;BME280;11362;48.102;11.620;2022-09-25T12:11:59;94692.25;;;21.84;42.46
22389;BME280;11362;48.102;11.620;2022-09-25T12:17:28;94691.47;;;21.83;42.57
22389;BME280;11362;48.102;11.620;2022-09-25T12:25:52;94683.97;;;21.84;42.35
22389;BME280;11362;48.102;11.620;2022-09-25T12:28:42;94683.16;;;21.83;42.65
22389;BME280;11362;48.102;11.620;2022-09-25T12:31:30;94685.13;;;21.83;42.67
22389;BME280;11362;48.102;11.620;2022-09-25T12:36:55;94678.44;;;21.84;42.59
22389;BME280;11362;48.102;11.620;2022-09-25T12:39:33;94685.13;;;21.83;42.48
22389;BME280;11362;48.102;11.620;2022-09-25T12:42:10;94685.13;;;21.83;42.48
22389;BME280;11362;48.102;11.620;2022-09-25T12:44:58;94679.59;;;21.83;42.64
22389;BME280;11362;48.102;11.620;2022-09-25T12:50:18;94672.53;;;21.82;42.64
22389;BME280;11362;48.102;11.620;2022-09-25T12:52:55;94683.56;;;21.82;42.64
22389;BME280;11362;48.102;11.620;2022-09-25T12:55:45;94675.28;;;21.82;42.45
22389;BME280;11362;48.102;11.620;2022-09-25T12:58:33;94670.97;;;21.81;42.58
22389;BME280;11362;48.102;11.620;2022-09-25T13:01:14;94670.97;;;21.81;42.51
22389;BME280;11362;48.102;11.620;2022-09-25T13:04:00;94669.75;;;21.82;42.45
22389;BME280;11362;48.102;11.620;2022-09-25T13:12:33;94668.19;;;21.81;42.58
22389;BME280;11362;48.102;11.620;2022-09-25T13:15:03;94669.41;;;21.80;42.48
22389;BME280;11362;48.102;11.620;2022-09-25T13:17:29;94665.88;;;21.79;42.71
22389;BME280;11362;48.102;11.620;2022-09-25T13:20:39;94665.44;;;21.81;42.75
22389;BME280;11362;48.102;11.620;2022-09-25T13:23:07;94669.41;;;21.80;42.63
22389;BME280;11362;48.102;11.620;2022-09-25T13:25:48;94671.75;;;21.81;42.93
22389;BME280;11362;48.102;11.620;2022-09-25T13:28:20;94676.50;;;21.81;42.77
22389;BME280;11362;48.102;11.620;2022-09-25T13:31:03;94674.94;;;21.80;42.60
22389;BME280;11362;48.102;11.620;2022-09-25T13:33:36;94674.94;;;21.80;42.65
22389;BME280;11362;48.102;11.620;2022-09-25T13:36:06;94681.25;;;21.80;42.61
22389;BME280;11362;48.102;11.620;2022-09-25T13:38:38;94683.22;;;21.80;42.75
22389;BME280;11362;48.102;11.620;2022-09-25T13:41:10;94687.19;;;21.79;42.67
22389;BME280;11362;48.102;11.620;2022-09-25T13:43:35;94689.97;;;21.79;42.68
22389;BME280;11362;48.102;11.620;2022-09-25T13:48:38;94696.28;;;21.79;42.59
22389;BME280;11362;48.102;11.620;2022-09-25T13:53:57;94680.88;;;21.78;42.72
22389;BME280;11362;48.102;11.620;2022-09-25T13:56:24;94673.38;;;21.79;42.68
22389;BME280;11362;48.102;11.620;2022-09-25T14:06:41;94689.97;;;21.79;42.95
22389;BME280;11362;48.102;11.620;2022-09-25T14:09:16;94691.16;;;21.78;42.86
22389;BME280;11362;48.102;11.620;2022-09-25T14:14:32;94689.97;;;21.79;42.84
22389;BME280;11362;48.102;11.620;2022-09-25T14:16:59;94686.84;;;21.77;42.84
22389;BME280;11362;48.102;11.620;2022-09-25T14:19:38;94680.09;;;21.78;42.81
22389;BME280;11362;48.102;11.620;2022-09-25T14:22:05;94678.91;;;21.79;42.74
22389;BME280;11362;48.102;11.620;2022-09-25T14:24:31;94679.69;;;21.79;42.72
22389;BME280;11362;48.102;11.620;2022-09-25T14:26:59;94670.59;;;21.79;42.77
22389;BME280;11362;48.102;11.620;2022-09-25T14:29:29;94672.16;;;21.80;42.79
22389;BME280;11362;48.102;11.620;2022-09-25T14:32:20;94674.94;;;21.80;42.82
22389;BME280;11362;48.102;11.620;2022-09-25T14:35:00;94669.41;;;21.80;42.83
22389;BME280;11362;48.102;11.620;2022-09-25T14:38:01;94677.69;;;21.80;42.79
22389;BME280;11362;48.102;11.620;2022-09-25T14:40:39;94669.41;;;21.80;42.84
22389;BME280;11362;48.102;11.620;2022-09-25T14:46:11;94673.38;;;21.79;42.77
22389;BME280;11362;48.102;11.620;2022-09-25T14:51:20;94668.63;;;21.79;42.64
22389;BME280;11362;48.102;11.620;2022-09-25T14:54:17;94669.41;;;21.80;42.69